Time;durP1;ratioP1;P1;durP2;ratioP2;P2;SDS_P1;SDS_P2;PMS_P1;PMS_P2;Temp;Humidity;BMP_temperature;BMP_pressure;BME280_temperature;BME280_humidity;BME280_pressure;Samples;Min_cycle;Max_cycle;Signal;HPM_P1;HPM_P2
2023/06/06 00:02:19;;;;;;;;;13.33;10.33;;;;;20.70;46.52;101291.41;6191491;22;44982;-65
2023/06/06 00:04:47;;;;;;;;;7.00;5.67;;;;;20.66;46.62;101280.63;6189870;22;45256;-65
2023/06/06 00:07:14;;;;;;;;;8.00;5.00;;;;;20.68;46.61;101293.25;6190919;22;45114;-66
2023/06/06 00:09:39;;;;;;;;;5.33;5.33;;;;;20.66;46.26;101296.91;6191806;22;44988;-65
2023/06/06 00:12:05;;;;;;;;;9.00;7.33;;;;;20.59;46.65;101296.91;6191386;22;45176;-65
2023/06/06 00:14:32;;;;;;;;;10.00;6.00;;;;;20.49;46.95;101288.81;6191733;22;45038;-65
2023/06/06 00:16:58;;;;;;;;;7.00;5.00;;;;;20.41;47.03;101284.34;6191142;22;45737;-66
2023/06/06 00:19:24;;;;;;;;;8.67;6.33;;;;;20.29;47.04;101267.22;6192086;22;44869;-67
2023/06/06 00:21:50;;;;;;;;;7.67;6.00;;;;;20.35;47.41;101283.47;6191072;22;44892;-66
2023/06/06 00:24:17;;;;;;;;;8.00;8.00;;;;;20.32;47.40;101278.94;6190900;22;45176;-66
2023/06/06 00:26:42;;;;;;;;;16.00;6.67;;;;;20.16;47.40;101250.09;6190208;23;46665;-67
2023/06/06 00:29:07;;;;;;;;;8.00;5.33;;;;;20.28;47.18;101278.97;6189911;22;44852;-68
2023/06/06 00:31:33;;;;;;;;;8.67;6.33;;;;;20.22;47.29;101283.53;6189366;23;44953;-69
2023/06/06 00:33:58;;;;;;;;;9.67;8.67;;;;;20.20;47.62;101284.44;6190282;22;45190;-67
2023/06/06 00:36:23;;;;;;;;;6.33;5.67;;;;;20.09;47.63;101265.50;6192074;22;45085;-66
2023/06/06 00:38:50;;;;;;;;;11.67;7.00;;;;;20.11;47.73;101276.34;6192481;22;45216;-67
2023/06/06 00:41:15;;;;;;;;;8.67;6.33;;;;;20.05;47.71;101269.16;6191887;22;45103;-66
2023/06/06 00:43:41;;;;;;;;;9.67;8.00;;;;;19.99;48.01;101286.34;6191609;23;45287;-66
2023/06/06 00:46:06;;;;;;;;;7.00;7.00;;;;;19.95;48.05;101273.72;6191122;23;46786;-66
2023/06/06 00:48:32;;;;;;;;;11.33;7.00;;;;;19.92;47.78;101270.13;6191862;22;45030;-66
2023/06/06 00:50:59;;;;;;;;;7.33;6.33;;;;;19.90;47.57;101270.13;6191968;22;45128;-65
2023/06/06 00:53:24;;;;;;;;;8.33;7.67;;;;;19.88;47.88;101269.19;6191498;22;45104;-65
2023/06/06 00:55:50;;;;;;;;;9.67;5.67;;;;;19.85;48.19;101269.22;6215656;22;45891;-66
2023/06/06 00:58:15;;;;;;;;;4.00;4.00;;;;;19.74;48.06;101252.97;6191547;22;44956;-66
2023/06/06 01:00:41;;;;;;;;;9.33;7.67;;;;;19.70;48.33;101254.78;6191194;23;45267;-66
2023/06/06 01:03:09;;;;;;;;;9.00;6.00;;;;;19.71;48.38;101263.81;6190402;22;45211;-66
2023/06/06 01:05:38;;;;;;;;;10.00;5.67;;;;;19.65;48.25;101256.59;6190187;22;45469;-66
2023/06/06 01:08:04;;;;;;;;;7.00;7.00;;;;;19.73;48.44;101274.66;6189529;22;44973;-66
2023/06/06 01:10:30;;;;;;;;;6.67;6.67;;;;;19.66;48.37;101269.22;6181459;23;45559;-68
2023/06/06 01:13:14;;;;;;;;;9.33;5.67;;;;;19.39;48.56;101237.69;6183371;22;45507;-67
2023/06/06 01:15:51;;;;;;;;;10.00;6.67;;;;;19.48;48.87;101262.03;6186899;22;45481;-65
2023/06/06 01:18:18;;;;;;;;;7.00;6.00;;;;;19.45;48.74;101253.03;6206099;22;45174;-67
2023/06/06 01:20:44;;;;;;;;;16.00;9.33;;;;;19.43;49.17;101258.44;6178491;22;45312;-67
2023/06/06 01:23:11;;;;;;;;;7.00;7.00;;;;;19.41;49.34;101262.97;6182232;23;45369;-67
2023/06/06 01:25:37;;;;;;;;;6.33;4.67;;;;;19.31;49.13;101251.25;6183105;22;45768;-68
2023/06/06 01:28:04;;;;;;;;;8.67;6.67;;;;;19.32;49.15;101258.50;6185825;22;45467;-66
2023/06/06 01:30:33;;;;;;;;;6.00;6.00;;;;;19.31;49.46;101259.38;6189574;23;45062;-66
2023/06/06 01:33:07;;;;;;;;;10.33;6.67;;;;;19.16;49.54;101235.03;6190994;22;44989;-68
2023/06/06 01:35:54;;;;;;;;;8.00;7.00;;;;;19.19;49.45;101231.41;6189684;23;47369;-68
2023/06/06 01:38:24;;;;;;;;;9.33;7.67;;;;;19.14;49.37;101223.31;6190818;22;44922;-66
2023/06/06 01:40:52;;;;;;;;;10.00;7.00;;;;;19.17;49.50;101241.34;6191277;22;45031;-67
2023/06/06 01:43:22;;;;;;;;;10.00;7.00;;;;;19.12;49.38;101241.34;6190991;22;45057;-67
2023/06/06 01:45:50;;;;;;;;;7.67;6.67;;;;;19.14;49.72;101254.00;6187452;23;45113;-65
2023/06/06 01:48:16;;;;;;;;;10.33;7.33;;;;;19.12;49.65;101255.81;6189445;23;45031;-67
2023/06/06 01:50:42;;;;;;;;;10.33;8.33;;;;;19.11;49.71;101254.00;6190777;22;45105;-67
2023/06/06 01:53:07;;;;;;;;;8.75;7.75;;;;;18.99;49.68;101237.75;6190946;23;44962;-65
2023/06/06 01:55:35;;;;;;;;;7.75;7.75;;;;;19.05;49.73;101253.09;6190587;23;45154;-67
2023/06/06 01:58:01;;;;;;;;;10.67;8.00;;;;;19.05;49.78;101253.09;6191068;22;44857;-65
2023/06/06 02:00:26;;;;;;;;;12.33;7.00;;;;;19.07;49.69;101249.50;6189669;22;44866;-66
2023/06/06 02:02:51;;;;;;;;;8.67;7.00;;;;;19.02;49.98;101248.56;6189886;23;45181;-65
2023/06/06 02:05:19;;;;;;;;;7.67;7.67;;;;;19.01;50.08;101245.88;6214927;22;55330;-65
2023/06/06 02:07:44;;;;;;;;;8.33;5.00;;;;;19.01;49.80;101237.75;6189872;23;44992;-66
2023/06/06 02:10:09;;;;;;;;;12.00;6.67;;;;;18.99;49.94;101250.38;6191147;23;46671;-67
2023/06/06 02:12:35;;;;;;;;;10.33;7.33;;;;;18.84;49.99;101225.13;6190542;22;44882;-67
2023/06/06 02:15:02;;;;;;;;;11.67;8.00;;;;;18.94;50.09;101245.88;6190177;22;45310;-66
2023/06/06 02:17:28;;;;;;;;;11.33;9.00;;;;;18.85;50.28;101254.00;6190267;23;45122;-67
2023/06/06 02:19:53;;;;;;;;;11.33;10.00;;;;;18.75;50.53;101254.88;6191200;23;44956;-66
2023/06/06 02:22:18;;;;;;;;;12.00;8.00;;;;;18.68;50.94;101253.06;6191092;23;45043;-66
2023/06/06 02:24:44;;;;;;;;;11.33;9.33;;;;;18.65;50.88;101253.06;6190816;22;45177;-68
2023/06/06 02:27:09;;;;;;;;;9.50;8.25;;;;;18.62;50.81;101262.06;6189976;23;45322;-64
2023/06/06 02:29:37;;;;;;;;;9.67;8.33;;;;;18.57;50.88;101248.50;6191164;23;44994;-65
2023/06/06 02:32:03;;;;;;;;;15.67;9.67;;;;;18.61;51.06;101265.69;6190974;23;45220;-65
2023/06/06 02:34:29;;;;;;;;;10.00;9.00;;;;;18.53;50.83;101251.25;6188540;22;46221;-66
2023/06/06 02:36:57;;;;;;;;;10.50;9.50;;;;;18.61;50.93;101271.09;6190815;22;45082;-65
2023/06/06 02:39:23;;;;;;;;;11.33;8.67;;;;;18.50;50.91;101248.53;6189887;22;45217;-66
2023/06/06 02:41:50;;;;;;;;;12.50;10.00;;;;;18.56;50.98;101252.13;6191040;22;45144;-67
2023/06/06 02:44:17;;;;;;;;;12.00;7.67;;;;;18.54;50.89;101253.03;6189746;22;45388;-67
2023/06/06 02:46:42;;;;;;;;;10.25;10.00;;;;;18.56;50.92;101262.03;6188756;22;44913;-65
2023/06/06 02:49:08;;;;;;;;;11.00;6.67;;;;;18.48;51.14;101250.31;6189247;22;45090;-66
2023/06/06 02:51:33;;;;;;;;;10.50;9.50;;;;;18.56;51.16;101256.63;6189914;22;44893;-68
2023/06/06 02:53:59;;;;;;;;;14.25;8.75;;;;;18.49;51.21;101249.41;6189526;22;45357;-66
2023/06/06 02:56:25;;;;;;;;;13.50;10.50;;;;;18.38;51.21;101246.69;6189591;22;45105;-66
2023/06/06 02:58:52;;;;;;;;;13.50;10.25;;;;;18.25;51.40;101237.66;6189730;22;44969;-67
2023/06/06 03:01:20;;;;;;;;;13.33;9.67;;;;;18.30;51.71;101248.50;6189448;23;45192;-68
2023/06/06 03:03:46;;;;;;;;;9.00;7.67;;;;;18.27;51.84;101243.06;6187726;23;46583;-68
2023/06/06 03:06:12;;;;;;;;;16.25;11.25;;;;;18.35;51.54;101247.59;6189604;23;45442;-68
2023/06/06 03:08:42;;;;;;;;;16.00;11.00;;;;;18.27;51.80;101235.84;6190096;22;45062;-65
2023/06/06 03:11:08;;;;;;;;;12.75;10.75;;;;;18.27;51.73;101246.66;6190742;23;45079;-64
2023/06/06 03:13:33;;;;;;;;;10.00;7.00;;;;;18.23;51.63;101245.75;6189995;22;45259;-67
2023/06/06 03:15:59;;;;;;;;;9.00;6.50;;;;;18.29;51.44;101254.78;6190211;23;44995;-66
2023/06/06 03:18:25;;;;;;;;;12.00;9.25;;;;;18.27;51.81;101262.00;6190997;22;44969;-68
2023/06/06 03:20:51;;;;;;;;;10.75;9.00;;;;;18.16;52.20;101249.31;6191283;22;44961;-69
2023/06/06 03:23:17;;;;;;;;;12.00;10.33;;;;;18.08;51.73;101242.09;6189087;23;46538;-69
2023/06/06 03:25:44;;;;;;;;;10.75;8.25;;;;;17.98;52.81;101249.25;6190352;23;45320;-66
2023/06/06 03:28:13;;;;;;;;;10.00;7.25;;;;;17.93;53.01;101243.84;6190713;22;44898;-67
2023/06/06 03:30:38;;;;;;;;;15.00;12.00;;;;;17.90;52.49;101248.31;6190852;23;44968;-68
2023/06/06 03:33:06;;;;;;;;;13.50;9.50;;;;;17.92;52.84;101254.63;6189876;22;45985;-67
2023/06/06 03:35:33;;;;;;;;;15.75;10.25;;;;;17.91;53.17;101242.03;6190978;22;45009;-66
2023/06/06 03:37:59;;;;;;;;;17.50;12.75;;;;;17.91;53.01;101248.34;6191006;22;45074;-68
2023/06/06 03:40:25;;;;;;;;;19.75;13.50;;;;;17.92;52.92;101246.53;6190547;23;44850;-67
2023/06/06 03:42:51;;;;;;;;;12.25;10.25;;;;;17.94;52.78;101247.47;6189815;23;45559;-66
2023/06/06 03:45:17;;;;;;;;;16.75;12.75;;;;;17.94;53.08;101250.16;6190438;22;45090;-65
2023/06/06 03:47:44;;;;;;;;;14.50;11.25;;;;;17.98;52.94;101251.97;6189998;22;45151;-66
2023/06/06 03:50:10;;;;;;;;;16.50;12.00;;;;;17.90;52.79;101246.56;6189377;23;45117;-67
2023/06/06 03:52:36;;;;;;;;;14.75;12.50;;;;;18.00;52.78;101258.28;6189251;23;45074;-66
2023/06/06 03:55:02;;;;;;;;;17.25;13.50;;;;;17.95;52.55;101243.84;6189751;22;45562;-67
2023/06/06 03:57:27;;;;;;;;;14.50;11.25;;;;;18.00;52.78;101261.91;6189871;22;44869;-65
2023/06/06 03:59:52;;;;;;;;;26.50;22.00;;;;;18.01;52.59;101254.69;6188440;23;44874;-66
2023/06/06 04:02:18;;;;;;;;;18.00;9.50;;;;;17.99;52.86;101251.09;6189483;23;64289;-64
2023/06/06 04:04:43;;;;;;;;;18.50;13.50;;;;;17.99;52.75;101259.19;6190980;22;44913;-66
2023/06/06 04:07:09;;;;;;;;;18.25;14.75;;;;;17.57;53.10;101214.81;6190443;23;44814;-66
2023/06/06 04:09:35;;;;;;;;;17.00;13.00;;;;;17.83;53.43;101255.47;6189670;23;44881;-66
2023/06/06 04:12:02;;;;;;;;;16.25;12.00;;;;;17.75;53.64;101262.66;6191077;23;45136;-68
2023/06/06 04:14:27;;;;;;;;;13.00;13.00;;;;;17.73;53.22;101265.34;6191265;22;45210;-68
2023/06/06 04:16:53;;;;;;;;;18.25;12.50;;;;;17.71;53.83;101266.25;6183105;22;45504;-65
2023/06/06 04:19:18;;;;;;;;;16.67;12.00;;;;;17.61;53.93;101252.66;6180440;23;45474;-65
2023/06/06 04:21:45;;;;;;;;;14.50;12.50;;;;;17.59;53.63;101257.16;6201507;22;48328;-64
2023/06/06 04:24:11;;;;;;;;;21.25;15.00;;;;;17.70;53.22;101259.91;6190886;22;45209;-64
2023/06/06 04:26:37;;;;;;;;;13.25;12.00;;;;;17.76;53.61;101265.34;6192929;22;45188;-66
2023/06/06 04:29:02;;;;;;;;;24.00;16.75;;;;;17.80;53.61;101261.78;6192505;22;45427;-65
2023/06/06 04:31:32;;;;;;;;;14.00;13.50;;;;;17.73;53.52;101246.41;6192395;22;45332;-67
2023/06/06 04:34:01;;;;;;;;;16.25;14.75;;;;;17.79;53.18;101268.06;6192652;22;44989;-66
2023/06/06 04:36:26;;;;;;;;;19.25;14.75;;;;;17.77;53.48;101259.06;6192061;22;45130;-65
2023/06/06 04:39:00;;;;;;;;;19.75;14.25;;;;;17.76;53.29;101254.53;6191134;22;45140;-65
2023/06/06 04:41:25;;;;;;;;;20.00;17.50;;;;;17.73;53.29;101254.53;6179218;23;47094;-66
2023/06/06 04:43:51;;;;;;;;;18.75;16.75;;;;;17.82;53.35;101257.28;6178432;23;45626;-64
2023/06/06 04:46:23;;;;;;;;;21.75;17.75;;;;;17.77;53.83;101264.47;6179248;22;45355;-65
2023/06/06 04:48:53;;;;;;;;;26.75;17.75;;;;;17.77;53.42;101266.25;6179601;22;45382;-65
2023/06/06 04:51:20;;;;;;;;;18.50;17.25;;;;;17.65;53.99;101243.69;6177910;23;47040;-65
2023/06/06 04:53:46;;;;;;;;;21.00;19.75;;;;;17.74;53.89;101258.16;6152490;23;46068;-64
2023/06/06 04:56:12;;;;;;;;;23.50;20.50;;;;;17.68;54.33;101257.19;6179455;22;45585;-65
2023/06/06 04:58:38;;;;;;;;;20.75;19.25;;;;;17.61;54.20;101263.47;6179619;22;45401;-65
2023/06/06 05:01:04;;;;;;;;;20.25;16.00;;;;;17.60;54.37;101263.47;6179119;22;46310;-65
2023/06/06 05:03:30;;;;;;;;;31.50;22.00;;;;;17.60;54.70;101253.53;6180136;23;45467;-65
2023/06/06 05:05:56;;;;;;;;;20.25;18.25;;;;;17.66;54.23;101258.09;6180137;22;45550;-64
2023/06/06 05:08:21;;;;;;;;;22.00;18.00;;;;;17.74;54.45;101267.16;6180464;22;45328;-66
2023/06/06 05:10:47;;;;;;;;;28.25;26.50;;;;;17.78;54.28;101268.97;6178966;22;45338;-65
2023/06/06 05:13:12;;;;;;;;;19.50;16.50;;;;;17.78;53.94;101262.66;6179997;23;45271;-66
2023/06/06 05:15:38;;;;;;;;;18.50;17.00;;;;;17.80;54.14;101260.88;6177934;23;45444;-66
2023/06/06 05:18:03;;;;;;;;;25.50;20.75;;;;;17.87;54.00;101260.06;6178820;22;45533;-67
2023/06/06 05:20:29;;;;;;;;;27.50;20.75;;;;;17.90;54.01;101268.19;6179589;22;46129;-67
2023/06/06 05:22:54;;;;;;;;;20.50;16.25;;;;;17.88;53.88;101269.06;6175709;22;45254;-65
2023/06/06 05:25:20;;;;;;;;;25.75;19.75;;;;;17.86;54.11;101264.50;6179047;22;45252;-67
2023/06/06 05:27:46;;;;;;;;;20.50;18.50;;;;;17.78;54.44;101258.16;6179800;23;45360;-66
2023/06/06 05:30:12;;;;;;;;;22.25;17.50;;;;;17.80;54.05;101250.97;6179627;22;46192;-67
2023/06/06 05:32:37;;;;;;;;;30.75;23.00;;;;;17.90;54.13;101262.78;6179273;22;45427;-67
2023/06/06 05:35:04;;;;;;;;;27.00;23.25;;;;;17.93;53.67;101265.47;6203411;22;45420;-65
2023/06/06 05:37:29;;;;;;;;;28.50;23.00;;;;;17.90;53.94;101268.19;6179802;22;45324;-65
2023/06/06 05:39:55;;;;;;;;;36.50;24.75;;;;;17.85;54.26;101260.00;6177019;23;47421;-65
2023/06/06 05:42:23;;;;;;;;;28.75;25.50;;;;;17.90;54.11;101262.78;6191672;22;46436;-66
2023/06/06 05:44:51;;;;;;;;;31.50;24.50;;;;;17.91;54.39;101278.06;6191687;22;44964;-65
2023/06/06 05:47:17;;;;;;;;;29.00;24.00;;;;;17.92;54.34;101270.84;6191158;23;45106;-67
2023/06/06 05:49:42;;;;;;;;;21.75;20.00;;;;;17.82;54.02;101259.09;6190252;23;45785;-66
2023/06/06 05:52:08;;;;;;;;;28.75;24.00;;;;;17.90;53.80;101268.19;6184100;22;45269;-65
2023/06/06 05:54:34;;;;;;;;;21.50;20.75;;;;;17.94;53.79;101278.09;6179501;23;45465;-65
2023/06/06 05:57:00;;;;;;;;;20.75;19.50;;;;;17.92;54.17;101277.19;6180426;22;45566;-66
2023/06/06 05:59:26;;;;;;;;;21.75;20.00;;;;;17.94;54.29;101275.38;6179063;22;46196;-65
2023/06/06 06:01:52;;;;;;;;;41.50;33.25;;;;;18.07;54.05;101272.75;6179549;22;45906;-65
2023/06/06 06:04:18;;;;;;;;;27.50;26.75;;;;;18.08;53.90;101271.84;6180564;23;45668;-69
2023/06/06 06:06:47;;;;;;;;;30.50;23.50;;;;;17.99;53.51;101240.28;6181542;22;45453;-67
2023/06/06 06:09:14;;;;;;;;;24.50;21.75;;;;;18.26;53.51;101273.69;6179548;22;45362;-65
2023/06/06 06:11:40;;;;;;;;;27.25;21.50;;;;;18.33;53.44;101272.81;6178702;22;45480;-65
2023/06/06 06:14:06;;;;;;;;;23.25;21.75;;;;;18.38;53.25;101277.34;6180911;22;45476;-64
2023/06/06 06:16:31;;;;;;;;;25.50;22.25;;;;;18.46;53.27;101287.28;6177450;23;45260;-63
2023/06/06 06:18:56;;;;;;;;;25.75;20.50;;;;;18.53;52.98;101284.59;6178340;22;47320;-63
2023/06/06 06:21:22;;;;;;;;;26.50;21.75;;;;;18.50;52.98;101276.47;6179772;23;45463;-66
2023/06/06 06:23:50;;;;;;;;;31.00;25.50;;;;;18.58;52.70;101282.81;6177605;22;45644;-60
2023/06/06 06:26:17;;;;;;;;;32.75;29.50;;;;;18.63;52.43;101276.47;6178645;22;45316;-68
2023/06/06 06:28:42;;;;;;;;;34.25;26.00;;;;;18.66;52.22;101279.19;6179663;22;45532;-69
2023/06/06 06:31:08;;;;;;;;;29.00;27.00;;;;;18.61;52.71;101262.97;6179103;22;45357;-64
2023/06/06 06:33:34;;;;;;;;;31.75;25.50;;;;;18.79;52.62;101281.94;6179760;22;45290;-69
2023/06/06 06:36:00;;;;;;;;;30.25;28.25;;;;;18.85;52.27;101278.34;6180821;22;45270;-62
2023/06/06 06:38:25;;;;;;;;;47.50;37.25;;;;;18.92;52.07;101285.59;6178931;22;46180;-67
2023/06/06 06:40:52;;;;;;;;;28.00;24.50;;;;;18.94;51.70;101274.75;6178437;23;45299;-64
2023/06/06 06:43:17;;;;;;;;;48.25;31.25;;;;;19.05;52.07;101281.06;6178569;22;45235;-62
2023/06/06 06:45:43;;;;;;;;;34.25;22.50;;;;;19.06;51.86;101282.88;6178629;22;45488;-68
2023/06/06 06:48:08;;;;;;;;;29.75;23.50;;;;;19.07;51.83;101287.41;6178735;22;46131;-67
2023/06/06 06:50:34;;;;;;;;;23.50;20.00;;;;;18.98;51.46;101273.84;6179159;22;45279;-61
2023/06/06 06:53:02;;;;;;;;;26.00;20.75;;;;;19.06;51.69;101291.00;6178501;23;45392;-63
2023/06/06 06:55:27;;;;;;;;;26.00;22.50;;;;;19.06;51.80;101277.47;6179157;23;45485;-62
2023/06/06 06:57:53;;;;;;;;;36.50;29.75;;;;;19.03;51.65;101276.56;6177890;23;45553;-66
2023/06/06 07:00:22;;;;;;;;;45.75;32.75;;;;;18.98;51.98;101284.69;6178548;22;45301;-62
2023/06/06 07:02:47;;;;;;;;;56.25;43.25;;;;;19.04;51.79;101287.41;6178984;22;45483;-63
2023/06/06 07:05:17;;;;;;;;;34.25;25.00;;;;;19.10;52.15;101281.97;6179441;23;45179;-65
2023/06/06 07:07:44;;;;;;;;;33.50;25.00;;;;;19.20;51.50;101288.28;6176678;23;48355;-67
2023/06/06 07:10:10;;;;;;;;;27.25;25.00;;;;;19.22;51.66;101291.00;6178663;22;45363;-66
2023/06/06 07:12:35;;;;;;;;;27.00;24.50;;;;;19.25;51.47;101282.88;6178675;23;45248;-63
2023/06/06 07:15:01;;;;;;;;;38.00;29.00;;;;;19.21;51.62;101278.38;6178342;22;45200;-62
2023/06/06 07:17:26;;;;;;;;;38.75;29.75;;;;;19.32;51.50;101282.88;6178805;22;45663;-64
2023/06/06 07:19:52;;;;;;;;;32.25;21.50;;;;;19.44;50.97;101281.94;6178536;23;45303;-66
2023/06/06 07:22:17;;;;;;;;;29.50;23.50;;;;;19.41;51.21;101287.38;6179706;22;45326;-64
2023/06/06 07:24:43;;;;;;;;;36.75;31.25;;;;;19.54;51.10;101284.66;6178328;23;45245;-62
2023/06/06 07:27:09;;;;;;;;;36.00;28.75;;;;;19.56;50.86;101272.88;6178136;22;46580;-61
2023/06/06 07:29:34;;;;;;;;;34.75;31.25;;;;;19.68;51.47;101277.38;6178757;22;45328;-63
2023/06/06 07:32:00;;;;;;;;;37.50;27.50;;;;;19.70;50.75;101283.72;6178671;22;45248;-65
2023/06/06 07:34:26;;;;;;;;;34.75;31.50;;;;;19.70;50.84;101278.28;6178683;23;45421;-62
2023/06/06 07:36:52;;;;;;;;;48.50;37.25;;;;;19.70;50.87;101273.75;6178228;22;46066;-64
2023/06/06 07:39:17;;;;;;;;;30.75;27.50;;;;;19.69;50.69;101279.19;6178819;23;45212;-69
2023/06/06 07:41:43;;;;;;;;;29.75;27.25;;;;;19.64;50.97;101283.72;6178525;23;45381;-64
2023/06/06 07:44:09;;;;;;;;;28.75;22.00;;;;;19.65;51.29;101281.00;6179577;22;45382;-62
2023/06/06 07:46:34;;;;;;;;;28.75;26.25;;;;;19.69;50.98;101273.75;6179063;23;45956;-64
2023/06/06 07:49:00;;;;;;;;;34.25;27.25;;;;;19.81;50.85;101272.84;6179153;23;45370;-65
2023/06/06 07:51:25;;;;;;;;;32.50;22.00;;;;;19.84;50.67;101267.41;6179532;22;45539;-69
2023/06/06 07:53:51;;;;;;;;;19.25;15.25;;;;;19.94;50.27;101273.72;6180248;23;45272;-61
2023/06/06 07:56:18;;;;;;;;;32.50;26.50;;;;;19.90;50.26;101256.56;6179159;22;46477;-66
2023/06/06 07:58:51;;;;;;;;;31.00;28.50;;;;;20.08;50.32;101277.28;6180188;23;45374;-65
2023/06/06 08:01:20;;;;;;;;;41.25;30.75;;;;;20.19;50.04;101279.94;6177757;23;45417;-61
2023/06/06 08:03:50;;;;;;;;;40.50;31.00;;;;;20.35;49.87;101275.34;6177656;23;45272;-64
2023/06/06 08:06:17;;;;;;;;;31.50;23.00;;;;;20.46;49.38;101278.88;6179271;22;45460;-61
2023/06/06 08:08:45;;;;;;;;;33.75;26.75;;;;;20.57;49.05;101271.59;6179144;22;45479;-63
2023/06/06 08:11:11;;;;;;;;;29.50;24.50;;;;;20.68;48.73;101260.66;6180024;22;45384;-62
2023/06/06 08:13:36;;;;;;;;;28.75;24.75;;;;;20.71;48.74;101248.91;6180879;22;45259;-61
2023/06/06 08:16:02;;;;;;;;;28.50;25.50;;;;;20.89;48.30;101262.31;6180080;22;45243;-61
2023/06/06 08:18:28;;;;;;;;;32.50;24.25;;;;;21.02;48.57;101262.19;6179959;23;45315;-62
2023/06/06 08:20:54;;;;;;;;;28.50;24.50;;;;;21.10;48.05;101269.41;6178969;23;45418;-64
2023/06/06 08:23:20;;;;;;;;;29.25;26.00;;;;;21.19;47.94;101268.41;6179152;22;45378;-64
2023/06/06 08:25:45;;;;;;;;;32.25;26.75;;;;;21.24;47.48;101271.97;6177636;23;46695;-64
2023/06/06 08:28:10;;;;;;;;;24.00;22.00;;;;;21.21;47.65;101254.81;6178969;22;45500;-61
2023/06/06 08:30:36;;;;;;;;;24.25;24.00;;;;;21.39;47.23;101273.63;6177513;23;45486;-65
2023/06/06 08:33:01;;;;;;;;;30.50;27.50;;;;;21.49;47.26;101271.75;6180242;23;45298;-60
2023/06/06 08:35:27;;;;;;;;;38.50;30.00;;;;;21.57;47.16;101261.72;6179506;23;46471;-66
2023/06/06 08:37:53;;;;;;;;;29.75;24.25;;;;;21.63;46.75;101252.56;6179959;22;45350;-65
2023/06/06 08:40:19;;;;;;;;;25.25;24.00;;;;;21.62;46.48;101254.41;6179347;22;45494;-66
2023/06/06 08:42:50;;;;;;;;;23.00;22.75;;;;;21.82;46.60;101275.03;6177885;23;45193;-67
2023/06/06 08:45:20;;;;;;;;;24.25;22.50;;;;;21.88;46.46;101264.97;6178446;22;46053;-67
2023/06/06 08:47:48;;;;;;;;;33.25;25.50;;;;;22.00;46.08;101272.09;6179706;22;45455;-65
2023/06/06 08:50:15;;;;;;;;;28.25;25.25;;;;;22.04;46.16;101270.22;6180790;22;45642;-63
2023/06/06 08:52:42;;;;;;;;;25.25;21.75;;;;;22.07;45.88;101254.75;6180585;22;45390;-63
2023/06/06 08:55:08;;;;;;;;;29.75;23.25;;;;;22.22;45.74;101272.72;6179103;23;45325;-62
2023/06/06 08:57:41;;;;;;;;;31.75;29.75;;;;;22.29;45.67;101272.66;6178515;23;45394;-64
2023/06/06 09:00:11;;;;;;;;;30.25;26.25;;;;;22.30;45.33;101259.00;6179327;22;45476;-66
2023/06/06 09:02:40;;;;;;;;;23.50;19.50;;;;;22.42;45.39;101269.75;6180292;22;45398;-62
2023/06/06 09:05:11;;;;;;;;;30.00;25.75;;;;;22.46;45.19;101259.72;6179535;22;45538;-61
2023/06/06 09:07:37;;;;;;;;;48.25;38.50;;;;;22.58;45.04;101274.97;6179300;23;45263;-61
2023/06/06 09:10:04;;;;;;;;;28.25;26.00;;;;;22.62;44.87;101276.72;6178528;22;45623;-62
2023/06/06 09:12:39;;;;;;;;;30.00;26.50;;;;;22.57;44.54;101259.53;6179847;22;45404;-62
2023/06/06 09:15:05;;;;;;;;;28.50;25.00;;;;;22.77;44.33;101289.22;6178927;23;45580;-62
2023/06/06 09:17:35;;;;;;;;;30.75;27.75;;;;;22.66;43.82;101251.22;6179182;22;45613;-63
2023/06/06 09:20:04;;;;;;;;;26.25;25.25;;;;;22.81;44.20;101266.44;6187453;23;45202;-62
2023/06/06 09:22:29;;;;;;;;;28.00;22.25;;;;;22.88;43.86;101267.22;6191140;22;44964;-63
2023/06/06 09:24:57;;;;;;;;;27.00;24.25;;;;;22.92;43.93;101260.81;6215140;22;46544;-61
2023/06/06 09:27:29;;;;;;;;;24.00;23.75;;;;;22.96;43.69;101268.00;6191129;22;45414;-61
2023/06/06 09:29:55;;;;;;;;;21.75;19.25;;;;;22.99;43.58;101248.88;6179367;22;46101;-65
2023/06/06 09:32:29;;;;;;;;;35.00;27.00;;;;;23.08;43.86;101265.13;6179155;22;45571;-62
2023/06/06 09:34:54;;;;;;;;;24.50;21.50;;;;;23.16;43.71;101259.50;6176399;23;46784;-64
2023/06/06 09:37:23;;;;;;;;;32.00;26.50;;;;;23.24;43.59;101253.94;6177893;22;45311;-65
2023/06/06 09:40:12;;;;;;;;;74.25;55.50;;;;;23.37;43.43;101260.97;6179396;22;45261;-65
2023/06/06 09:42:38;;;;;;;;;32.50;27.25;;;;;23.41;43.17;101251.78;6178995;22;45335;-65
2023/06/06 09:45:21;;;;;;;;;28.00;25.75;;;;;23.46;43.25;101254.41;6179012;22;45619;-65
2023/06/06 09:47:48;;;;;;;;;29.00;28.50;;;;;23.51;43.22;101247.97;6176587;22;45295;-63
2023/06/06 09:50:15;;;;;;;;;30.25;27.50;;;;;23.52;42.89;101237.94;6175103;22;45369;-65
2023/06/06 09:52:41;;;;;;;;;26.00;22.00;;;;;23.53;43.20;101228.84;6176150;22;45418;-64
2023/06/06 09:55:17;;;;;;;;;34.00;26.50;;;;;23.62;43.16;101231.38;6174353;22;46167;-67
2023/06/06 09:57:43;;;;;;;;;37.00;26.75;;;;;23.58;42.99;101218.75;6173055;23;45414;-63
2023/06/06 10:00:15;;;;;;;;;27.50;23.75;;;;;23.68;43.11;101236.72;6176319;22;46073;-62
2023/06/06 10:02:45;;;;;;;;;30.00;27.25;;;;;23.75;42.55;101234.75;6173561;23;45351;-62
2023/06/06 10:05:15;;;;;;;;;25.25;23.00;;;;;23.80;42.42;101226.47;6175705;22;45271;-62
2023/06/06 10:07:44;;;;;;;;;27.25;21.25;;;;;23.80;42.69;101223.75;6174494;23;45452;-62
2023/06/06 10:10:12;;;;;;;;;17.75;16.75;;;;;23.88;42.64;101229.97;6175312;23;45152;-62
2023/06/06 10:12:39;;;;;;;;;34.25;23.25;;;;;23.80;42.77;101204.66;6174555;23;45551;-62
2023/06/06 10:15:07;;;;;;;;;44.75;33.25;;;;;23.96;42.47;101233.44;6175445;22;45719;-66
2023/06/06 10:17:38;;;;;;;;;25.00;20.75;;;;;24.06;42.16;101231.41;6174719;23;45332;-64
2023/06/06 10:20:06;;;;;;;;;22.50;20.50;;;;;24.17;41.57;101223.91;6175499;22;45612;-65
2023/06/06 10:22:33;;;;;;;;;29.25;21.25;;;;;24.20;41.69;101214.72;6198840;22;45606;-63
2023/06/06 10:24:59;;;;;;;;;27.00;19.75;;;;;24.03;41.61;101177.78;6175188;23;47017;-65
2023/06/06 10:27:31;;;;;;;;;25.50;22.25;;;;;24.34;41.85;101223.50;6176152;22;45679;-62
2023/06/06 10:30:11;;;;;;;;;22.25;18.50;;;;;24.34;41.61;101225.34;6198506;22;45430;-61
2023/06/06 10:32:58;;;;;;;;;19.50;18.00;;;;;24.03;41.02;101175.06;6171322;23;45249;-67
2023/06/06 10:35:24;;;;;;;;;23.75;19.25;;;;;24.38;41.28;101222.47;6174611;23;46090;-65
2023/06/06 10:38:08;;;;;;;;;27.00;25.00;;;;;24.44;41.57;101222.34;6175315;23;45329;-63
2023/06/06 10:40:48;;;;;;;;;26.00;20.25;;;;;24.34;41.10;101185.25;6175015;22;45443;-63
2023/06/06 10:43:15;;;;;;;;;21.33;17.67;;;;;24.60;40.78;101219.25;6174941;22;45263;-63
2023/06/06 10:45:42;;;;;;;;;27.67;22.00;;;;;24.56;40.96;101196.59;6170794;22;45988;-61
2023/06/06 10:48:08;;;;;;;;;18.67;16.33;;;;;24.65;40.31;101217.34;6174447;23;45292;-62
2023/06/06 10:50:34;;;;;;;;;22.00;17.00;;;;;24.65;40.25;101210.03;6175160;22;45268;-65
2023/06/06 10:53:08;;;;;;;;;25.67;19.33;;;;;24.67;40.18;101220.03;6171910;23;45373;-64
2023/06/06 10:55:39;;;;;;;;;20.67;16.00;;;;;24.60;39.97;101181.94;6174726;22;45816;-61
2023/06/06 10:58:09;;;;;;;;;20.67;17.67;;;;;24.69;40.55;101196.31;6173176;23;45259;-64
2023/06/06 11:00:39;;;;;;;;;26.00;22.00;;;;;24.78;40.69;101205.16;6175744;22;45342;-64
2023/06/06 11:03:05;;;;;;;;;22.67;18.67;;;;;24.84;40.90;101195.91;6173926;22;45219;-65
2023/06/06 11:05:31;;;;;;;;;17.00;13.67;;;;;24.86;40.36;101193.13;6171870;23;47343;-61
2023/06/06 11:08:02;;;;;;;;;21.33;15.67;;;;;24.90;40.58;101184.81;6171451;23;45417;-66
2023/06/06 11:10:45;;;;;;;;;25.75;22.00;;;;;24.97;39.86;101191.00;6174500;22;45486;-68
2023/06/06 11:13:51;;;;;;;;;24.00;21.67;;;;;24.96;40.08;101178.28;6174178;23;45597;-67